createdAt,value
2023-04-18T00:02:19.925Z,97.26
2023-04-18T00:04:48.162Z,97.18
2023-04-18T00:07:16.953Z,97.09
2023-04-18T00:09:45.057Z,97.28
2023-04-18T00:12:13.015Z,97.80
2023-04-18T00:14:41.153Z,98.08
2023-04-18T00:17:08.898Z,98.26
2023-04-18T00:19:43.287Z,98.43
2023-04-18T00:22:11.308Z,98.52
2023-04-18T00:24:40.416Z,98.85
2023-04-18T00:27:08.052Z,98.74
2023-04-18T00:29:36.041Z,99.14
2023-04-18T00:32:03.799Z,99.21
2023-04-18T00:34:31.802Z,99.01
2023-04-18T00:36:59.458Z,98.78
2023-04-18T00:39:27.436Z,98.67
2023-04-18T00:41:55.087Z,99.18
2023-04-18T00:44:23.022Z,99.44
2023-04-18T00:46:51.253Z,99.33
2023-04-18T00:49:19.283Z,99.45
2023-04-18T00:51:47.278Z,99.35
2023-04-18T00:54:18.009Z,99.50
2023-04-18T00:56:46.952Z,99.46
2023-04-18T00:59:16.635Z,99.69
2023-04-18T01:01:45.241Z,99.98
2023-04-18T01:04:14.121Z,100.00
2023-04-18T01:06:44.115Z,99.76
2023-04-18T01:09:13.980Z,99.79
2023-04-18T01:11:41.773Z,99.64
2023-04-18T01:14:11.147Z,99.65
2023-04-18T01:16:38.949Z,99.61
2023-04-18T01:19:06.976Z,99.22
2023-04-18T01:21:37.124Z,99.29
2023-04-18T01:24:12.045Z,99.70
2023-04-18T01:26:44.096Z,100.00
2023-04-18T01:29:12.151Z,100.00
2023-04-18T01:31:40.873Z,100.00
2023-04-18T01:34:09.305Z,99.94
2023-04-18T01:36:39.354Z,100.00
2023-04-18T01:39:07.308Z,100.00
2023-04-18T01:41:35.284Z,100.00
2023-04-18T01:44:03.345Z,99.74
2023-04-18T01:46:31.688Z,99.93
2023-04-18T01:49:02.388Z,100.00
2023-04-18T01:51:30.093Z,99.97
2023-04-18T01:53:58.102Z,100.00
2023-04-18T01:56:26.010Z,100.00
2023-04-18T01:58:53.917Z,100.00
2023-04-18T02:01:21.795Z,100.00
2023-04-18T02:03:49.948Z,100.00
2023-04-18T02:06:18.066Z,100.00
2023-04-18T02:08:46.080Z,100.00
2023-04-18T02:11:13.829Z,100.00
2023-04-18T02:13:41.812Z,100.00
2023-04-18T02:16:13.722Z,100.00
2023-04-18T02:18:44.526Z,100.00
2023-04-18T02:21:14.376Z,100.00
2023-04-18T02:23:42.296Z,100.00
2023-04-18T02:26:09.978Z,100.00
2023-04-18T02:28:39.206Z,100.00
2023-04-18T02:31:14.365Z,100.00
2023-04-18T02:33:43.706Z,100.00
2023-04-18T02:36:13.028Z,100.00
2023-04-18T02:38:40.944Z,100.00
2023-04-18T02:41:08.879Z,100.00
2023-04-18T02:43:37.195Z,100.00
2023-04-18T02:46:04.965Z,100.00
2023-04-18T02:48:33.678Z,100.00
2023-04-18T02:51:06.471Z,100.00
2023-04-18T02:53:36.906Z,100.00
2023-04-18T02:56:04.874Z,100.00
2023-04-18T02:58:51.192Z,100.00
2023-04-18T03:01:48.387Z,100.00
2023-04-18T03:04:19.713Z,100.00
2023-04-18T03:06:57.949Z,100.00
2023-04-18T03:09:26.654Z,100.00
2023-04-18T03:11:59.876Z,100.00
2023-04-18T03:14:30.483Z,100.00
2023-04-18T03:16:58.200Z,100.00
2023-04-18T03:19:32.119Z,100.00
2023-04-18T03:22:06.056Z,100.00
2023-04-18T03:24:35.851Z,100.00
2023-04-18T03:27:06.118Z,100.00
2023-04-18T03:29:34.999Z,100.00
2023-04-18T03:32:02.819Z,100.00
2023-04-18T03:34:30.980Z,100.00
2023-04-18T03:36:58.635Z,100.00
2023-04-18T03:39:29.405Z,100.00
2023-04-18T03:41:57.677Z,100.00
2023-04-18T03:44:25.650Z,100.00
2023-04-18T03:46:54.144Z,100.00
2023-04-18T03:49:22.248Z,100.00
2023-04-18T03:51:49.991Z,100.00
2023-04-18T03:54:19.156Z,100.00
2023-04-18T03:56:46.964Z,100.00
2023-04-18T03:59:15.924Z,100.00
2023-04-18T04:01:47.669Z,100.00
2023-04-18T04:04:16.050Z,100.00
2023-04-18T04:06:44.162Z,100.00
2023-04-18T04:09:12.201Z,100.00
2023-04-18T04:11:40.640Z,100.00
2023-04-18T04:14:12.264Z,100.00
2023-04-18T04:16:45.121Z,100.00
2023-04-18T04:19:16.083Z,99.28
2023-04-18T04:21:52.158Z,98.78
2023-04-18T04:24:22.660Z,98.67
2023-04-18T04:26:51.844Z,98.84
2023-04-18T04:29:23.873Z,97.76
2023-04-18T04:31:53.126Z,97.30
2023-04-18T04:34:32.108Z,97.24
2023-04-18T04:37:01.467Z,96.80
2023-04-18T04:39:31.097Z,96.59
2023-04-18T04:42:19.470Z,96.18
2023-04-18T04:44:56.674Z,95.42
2023-04-18T04:47:24.762Z,95.04
2023-04-18T04:49:52.749Z,94.99
2023-04-18T04:52:20.597Z,95.07
2023-04-18T04:54:49.881Z,94.42
2023-04-18T04:57:19.968Z,93.75
2023-04-18T04:59:48.012Z,93.48
2023-04-18T05:02:15.903Z,93.27
2023-04-18T05:04:44.043Z,92.53
2023-04-18T05:07:11.740Z,91.96
2023-04-18T05:09:39.645Z,92.02
2023-04-18T05:12:08.117Z,91.84
2023-04-18T05:14:37.199Z,91.28
2023-04-18T05:17:05.028Z,90.69
2023-04-18T05:19:32.998Z,90.36
2023-04-18T05:22:00.634Z,90.05
2023-04-18T05:24:28.678Z,90.64
2023-04-18T05:26:56.946Z,91.24
2023-04-18T05:29:24.887Z,90.92
2023-04-18T05:31:54.844Z,91.01
2023-04-18T05:34:23.480Z,90.87
2023-04-18T05:36:51.739Z,90.98
2023-04-18T05:39:19.734Z,90.70
2023-04-18T05:41:47.506Z,90.24
2023-04-18T05:44:16.164Z,89.82
2023-04-18T05:46:44.052Z,89.58
2023-04-18T05:49:12.379Z,89.00
2023-04-18T05:51:40.129Z,88.83
2023-04-18T05:54:08.084Z,88.33
2023-04-18T05:56:35.956Z,88.59
2023-04-18T05:59:03.865Z,88.60
2023-04-18T06:01:32.590Z,88.25
2023-04-18T06:04:01.128Z,88.12
2023-04-18T06:06:29.148Z,87.93
2023-04-18T06:08:57.120Z,87.90
2023-04-18T06:11:24.832Z,88.03
2023-04-18T06:13:55.651Z,88.56
2023-04-18T06:16:23.405Z,87.69
2023-04-18T06:18:51.367Z,87.87
2023-04-18T06:21:20.246Z,87.73
2023-04-18T06:23:48.166Z,87.48
2023-04-18T06:26:15.961Z,87.66
2023-04-18T06:28:43.893Z,87.92
2023-04-18T06:31:11.586Z,87.31
2023-04-18T06:33:39.571Z,87.54
2023-04-18T06:36:07.582Z,87.65
2023-04-18T06:38:35.500Z,86.53
2023-04-18T06:41:03.260Z,85.93
2023-04-18T06:43:31.361Z,85.97
2023-04-18T06:45:59.633Z,85.66
2023-04-18T06:48:28.009Z,85.10
2023-04-18T06:50:55.676Z,85.39
2023-04-18T06:53:23.610Z,84.53
2023-04-18T06:55:51.338Z,84.55
2023-04-18T06:58:19.412Z,84.49
2023-04-18T07:00:51.826Z,83.60
2023-04-18T07:03:20.012Z,83.41
2023-04-18T07:05:48.023Z,81.87
2023-04-18T07:08:16.100Z,81.19
2023-04-18T07:10:43.819Z,80.39
2023-04-18T07:13:11.751Z,79.78
2023-04-18T07:15:39.445Z,79.33
2023-04-18T07:18:07.355Z,77.91
2023-04-18T07:20:35.156Z,77.70
2023-04-18T07:23:03.105Z,75.85
2023-04-18T07:25:31.670Z,74.51
2023-04-18T07:27:59.787Z,73.76
2023-04-18T07:30:27.620Z,73.08
2023-04-18T07:32:56.030Z,71.85
2023-04-18T07:35:23.730Z,70.84
2023-04-18T07:37:52.888Z,69.59
2023-04-18T07:40:21.147Z,68.78
2023-04-18T07:42:49.155Z,67.78
2023-04-18T07:45:17.737Z,66.66
2023-04-18T07:47:46.009Z,66.48
2023-04-18T07:50:13.863Z,65.43
2023-04-18T07:52:41.822Z,63.58
2023-04-18T07:55:09.711Z,62.04
2023-04-18T07:57:37.691Z,61.07
2023-04-18T08:00:06.527Z,59.57
2023-04-18T08:02:41.738Z,57.60
2023-04-18T08:05:10.455Z,54.25
2023-04-18T08:07:38.741Z,52.68
2023-04-18T08:10:07.113Z,51.15
2023-04-18T08:12:36.603Z,52.37
2023-04-18T08:15:05.002Z,51.77
2023-04-18T08:17:33.257Z,52.14
2023-04-18T08:20:04.916Z,51.52
2023-04-18T08:22:33.439Z,52.01
2023-04-18T08:25:05.442Z,53.57
2023-04-18T08:27:34.061Z,53.99
2023-04-18T08:30:04.090Z,52.76
2023-04-18T08:32:32.788Z,51.17
2023-04-18T08:35:00.932Z,49.58
2023-04-18T08:37:29.174Z,47.17
2023-04-18T08:39:57.034Z,45.36
2023-04-18T08:42:25.261Z,43.61
2023-04-18T08:44:54.057Z,42.86
2023-04-18T08:47:21.993Z,42.96
2023-04-18T08:49:49.712Z,41.65
2023-04-18T08:52:17.724Z,41.12
2023-04-18T08:54:47.077Z,39.90
2023-04-18T08:57:16.732Z,39.43
2023-04-18T08:59:48.276Z,40.02
2023-04-18T09:02:19.245Z,39.98
2023-04-18T09:04:55.754Z,40.72
2023-04-18T09:07:32.348Z,40.85
2023-04-18T09:10:00.057Z,41.05
2023-04-18T09:12:29.622Z,42.24
2023-04-18T09:15:10.563Z,43.21
2023-04-18T09:17:45.743Z,43.97
2023-04-18T09:20:25.695Z,44.83
2023-04-18T09:22:57.706Z,44.43
2023-04-18T09:25:49.101Z,44.22
2023-04-18T09:28:33.745Z,45.25
2023-04-18T09:31:12.197Z,45.66
2023-04-18T09:33:46.384Z,45.96
2023-04-18T09:36:21.538Z,46.36
2023-04-18T09:38:53.708Z,46.75
2023-04-18T09:41:23.336Z,47.46
2023-04-18T09:44:08.159Z,48.12
2023-04-18T09:46:35.845Z,48.33
2023-04-18T09:49:04.005Z,46.91
2023-04-18T09:51:33.409Z,46.68
2023-04-18T09:54:03.514Z,46.37
2023-04-18T09:56:32.685Z,45.31
2023-04-18T09:59:09.310Z,44.18
2023-04-18T10:01:37.774Z,43.64
2023-04-18T10:04:09.193Z,43.21
2023-04-18T10:06:39.838Z,43.51
2023-04-18T10:09:09.968Z,44.89
2023-04-18T10:11:38.143Z,46.08
2023-04-18T10:14:11.822Z,47.18
2023-04-18T10:16:40.804Z,47.32
2023-04-18T10:19:26.336Z,47.85
2023-04-18T10:22:00.977Z,47.72
2023-04-18T10:24:53.875Z,46.95
2023-04-18T10:27:49.417Z,46.81
2023-04-18T10:30:18.357Z,46.85
2023-04-18T10:32:48.816Z,46.99
2023-04-18T10:35:16.746Z,46.75
2023-04-18T10:37:59.946Z,47.10
2023-04-18T10:40:34.942Z,47.27
2023-04-18T10:43:02.722Z,46.76
2023-04-18T10:45:36.312Z,46.45
2023-04-18T10:48:29.273Z,45.96
2023-04-18T10:51:21.057Z,46.68
2023-04-18T10:54:01.051Z,47.24
2023-04-18T10:56:29.551Z,46.90
2023-04-18T10:59:01.997Z,46.56
2023-04-18T11:01:36.740Z,46.06
2023-04-18T11:04:13.975Z,46.18
2023-04-18T11:06:55.572Z,46.31
2023-04-18T11:09:23.559Z,45.50
2023-04-18T11:12:12.093Z,44.69
2023-04-18T11:14:52.260Z,45.32
2023-04-18T11:17:23.797Z,45.35
2023-04-18T11:20:01.501Z,45.78
2023-04-18T11:22:29.873Z,47.47
2023-04-18T11:25:08.528Z,48.18
2023-04-18T11:27:36.528Z,49.09
2023-04-18T11:30:04.576Z,49.27
2023-04-18T11:32:35.305Z,49.40
2023-04-18T11:35:03.893Z,49.23
2023-04-18T11:37:32.643Z,49.08
2023-04-18T11:40:00.728Z,48.07
2023-04-18T11:42:29.093Z,48.06
2023-04-18T11:44:56.768Z,47.75
2023-04-18T11:47:29.802Z,47.69
2023-04-18T11:50:06.767Z,48.90
2023-04-18T11:52:35.673Z,48.74
2023-04-18T11:55:27.341Z,49.73
2023-04-18T11:58:03.211Z,50.49
2023-04-18T12:00:38.721Z,50.52
2023-04-18T12:03:15.752Z,49.93
2023-04-18T12:05:44.151Z,49.30
2023-04-18T12:08:20.676Z,49.29
2023-04-18T12:10:54.081Z,49.22
2023-04-18T12:13:27.100Z,49.08
2023-04-18T12:15:54.913Z,49.37
2023-04-18T12:18:24.801Z,49.69
2023-04-18T12:20:54.503Z,49.93
2023-04-18T12:23:42.010Z,50.31
2023-04-18T12:26:16.112Z,50.35
2023-04-18T12:28:46.441Z,49.56
2023-04-18T12:31:14.106Z,49.00
2023-04-18T12:33:42.030Z,48.88
2023-04-18T12:36:10.560Z,48.72
2023-04-18T12:38:38.519Z,48.60
2023-04-18T12:41:06.370Z,48.58
2023-04-18T12:43:34.353Z,48.33
2023-04-18T12:46:02.261Z,48.24
2023-04-18T12:48:30.199Z,48.03
2023-04-18T12:50:57.869Z,48.01
2023-04-18T12:53:26.177Z,47.46
2023-04-18T12:55:53.875Z,47.31
2023-04-18T12:58:21.859Z,47.61
2023-04-18T13:00:49.507Z,46.43
2023-04-18T13:03:17.657Z,45.42
2023-04-18T13:05:46.100Z,45.64
2023-04-18T13:08:17.799Z,46.18
2023-04-18T13:10:47.630Z,45.44
2023-04-18T13:13:16.134Z,45.65
2023-04-18T13:15:43.990Z,45.37
2023-04-18T13:18:12.000Z,44.98
2023-04-18T13:20:39.764Z,44.50
2023-04-18T13:23:07.719Z,44.89
2023-04-18T13:25:35.515Z,45.12
2023-04-18T13:28:03.509Z,44.83
2023-04-18T13:30:32.049Z,44.81
2023-04-18T13:33:00.150Z,44.96
2023-04-18T13:35:27.922Z,45.01
2023-04-18T13:37:56.560Z,45.01
2023-04-18T13:40:25.283Z,45.63
2023-04-18T13:42:59.410Z,46.14
2023-04-18T13:45:27.575Z,46.12
2023-04-18T13:47:56.070Z,46.11
2023-04-18T13:50:23.963Z,45.86
2023-04-18T13:52:52.044Z,45.80
2023-04-18T13:55:19.972Z,45.96
2023-04-18T13:57:47.901Z,45.82
2023-04-18T14:00:16.727Z,45.57
2023-04-18T14:02:44.803Z,44.97
2023-04-18T14:05:12.817Z,44.36
2023-04-18T14:07:40.749Z,44.56
2023-04-18T14:10:08.726Z,45.21
2023-04-18T14:12:49.169Z,45.49
2023-04-18T14:18:55.329Z,46.62
2023-04-18T14:21:22.976Z,46.90
2023-04-18T14:23:53.142Z,46.91
2023-04-18T14:26:21.323Z,47.11
2023-04-18T14:28:49.436Z,47.08
2023-04-18T14:31:17.221Z,47.17
2023-04-18T14:33:45.429Z,46.77
2023-04-18T14:36:15.238Z,46.57
2023-04-18T14:38:43.204Z,46.73
2023-04-18T14:41:11.174Z,46.58
2023-04-18T14:43:39.039Z,46.46
2023-04-18T14:46:13.199Z,45.88
2023-04-18T14:48:41.193Z,45.81
2023-04-18T14:51:08.860Z,46.14
2023-04-18T14:53:36.784Z,45.62
2023-04-18T14:56:04.658Z,45.28
2023-04-18T14:58:32.848Z,45.59
2023-04-18T15:01:00.630Z,45.61
2023-04-18T15:03:29.199Z,45.62
2023-04-18T15:05:57.581Z,45.62
2023-04-18T15:08:25.676Z,45.17
2023-04-18T15:10:53.335Z,45.24
2023-04-18T15:13:21.824Z,45.66
2023-04-18T15:15:57.175Z,45.74
2023-04-18T15:18:25.181Z,46.00
2023-04-18T15:20:53.804Z,46.07
2023-04-18T15:23:21.929Z,46.23
2023-04-18T15:25:49.657Z,46.48
2023-04-18T15:28:18.675Z,46.54
2023-04-18T15:30:46.706Z,46.73
2023-04-18T15:33:15.767Z,46.86
2023-04-18T15:35:43.427Z,47.09
2023-04-18T15:38:11.883Z,47.24
2023-04-18T15:40:39.570Z,47.46
2023-04-18T15:43:07.633Z,47.21
2023-04-18T15:45:36.373Z,47.37
2023-04-18T15:48:04.488Z,47.46
2023-04-18T15:50:33.419Z,47.72
2023-04-18T15:53:02.070Z,47.91
2023-04-18T15:55:29.854Z,47.52
2023-04-18T15:57:57.828Z,47.49
2023-04-18T16:00:25.526Z,47.72
2023-04-18T16:02:53.567Z,47.64
2023-04-18T16:05:21.976Z,47.44
2023-04-18T16:07:50.111Z,47.58
2023-04-18T16:10:17.885Z,47.44
2023-04-18T16:12:46.949Z,47.14
2023-04-18T16:15:14.916Z,47.02
2023-04-18T16:17:42.968Z,46.98
2023-04-18T16:20:11.044Z,47.40
2023-04-18T16:22:39.175Z,47.59
2023-04-18T16:25:07.431Z,47.25
2023-04-18T16:27:35.469Z,47.30
2023-04-18T16:30:03.997Z,47.20
2023-04-18T16:32:32.173Z,47.37
2023-04-18T16:34:59.904Z,47.51
2023-04-18T16:37:28.024Z,47.66
2023-04-18T16:39:55.638Z,47.97
2023-04-18T16:42:23.560Z,48.53
2023-04-18T16:44:52.677Z,48.73
2023-04-18T16:47:20.600Z,48.70
2023-04-18T16:49:48.281Z,48.93
2023-04-18T16:52:17.685Z,49.22
2023-04-18T16:54:45.577Z,49.25
2023-04-18T16:57:13.694Z,49.72
2023-04-18T16:59:41.952Z,50.04
2023-04-18T17:02:10.023Z,50.21
2023-04-18T17:04:38.008Z,50.38
2023-04-18T17:07:06.449Z,50.82
2023-04-18T17:09:34.109Z,51.36
2023-04-18T17:12:02.427Z,51.86
2023-04-18T17:14:30.108Z,52.03
2023-04-18T17:16:58.325Z,52.51
2023-04-18T17:19:26.333Z,52.31
2023-04-18T17:21:54.423Z,52.94
2023-04-18T17:24:22.702Z,53.31
2023-04-18T17:26:50.794Z,53.64
2023-04-18T17:29:18.977Z,53.91
2023-04-18T17:31:47.013Z,54.41
2023-04-18T17:34:14.701Z,54.53
2023-04-18T17:36:42.886Z,55.01
2023-04-18T17:39:10.982Z,55.40
2023-04-18T17:41:39.549Z,56.46
2023-04-18T17:44:08.335Z,56.40
2023-04-18T17:46:36.705Z,56.54
2023-04-18T17:49:04.795Z,56.30
2023-04-18T17:51:32.763Z,56.19
2023-04-18T17:54:00.503Z,56.25
2023-04-18T17:56:30.473Z,56.46
2023-04-18T17:58:58.142Z,56.68
2023-04-18T18:01:28.822Z,56.56
2023-04-18T18:03:57.021Z,56.53
2023-04-18T18:06:24.985Z,56.85
2023-04-18T18:08:52.654Z,57.24
2023-04-18T18:11:21.465Z,57.63
2023-04-18T18:13:51.769Z,58.22
2023-04-18T18:16:19.933Z,58.64
2023-04-18T18:18:47.767Z,58.89
2023-04-18T18:21:15.895Z,59.01
2023-04-18T18:23:43.637Z,59.07
2023-04-18T18:26:12.544Z,59.50
2023-04-18T18:28:40.315Z,59.58
2023-04-18T18:31:08.271Z,60.11
2023-04-18T18:33:36.006Z,60.35
2023-04-18T18:36:04.124Z,60.37
2023-04-18T18:38:31.699Z,59.83
2023-04-18T18:41:02.312Z,59.45
2023-04-18T18:43:31.930Z,59.19
2023-04-18T18:45:59.949Z,59.00
2023-04-18T18:48:28.290Z,58.96
2023-04-18T18:50:57.302Z,58.62
2023-04-18T18:53:24.997Z,58.75
2023-04-18T18:55:52.947Z,58.98
2023-04-18T18:58:20.754Z,59.28
2023-04-18T19:00:48.383Z,58.64
2023-04-18T19:03:19.033Z,58.85
2023-04-18T19:05:47.436Z,58.80
2023-04-18T19:08:15.580Z,58.40
2023-04-18T19:10:43.296Z,58.25
2023-04-18T19:13:11.291Z,58.03
2023-04-18T19:15:38.955Z,57.68
2023-04-18T19:18:07.010Z,57.18
2023-04-18T19:20:34.962Z,57.00
2023-04-18T19:23:02.900Z,57.07
2023-04-18T19:25:30.657Z,56.59
2023-04-18T19:27:58.573Z,56.46
2023-04-18T19:30:26.195Z,55.97
2023-04-18T19:32:54.148Z,55.81
2023-04-18T19:35:21.976Z,55.73
2023-04-18T19:37:49.953Z,55.36
2023-04-18T19:40:17.830Z,55.26
2023-04-18T19:42:46.189Z,55.32
2023-04-18T19:45:15.192Z,54.79
2023-04-18T19:47:44.470Z,54.92
2023-04-18T19:50:12.333Z,54.65
2023-04-18T19:52:40.697Z,54.58
2023-04-18T19:55:08.812Z,54.55
2023-04-18T19:57:41.574Z,54.51
2023-04-18T20:00:12.294Z,54.51
2023-04-18T20:02:44.174Z,54.73
2023-04-18T20:05:12.942Z,54.84
2023-04-18T20:07:41.865Z,54.55
2023-04-18T20:10:10.765Z,54.91
2023-04-18T20:12:38.793Z,54.92
2023-04-18T20:15:06.988Z,55.39
2023-04-18T20:17:35.096Z,55.18
2023-04-18T20:20:03.590Z,55.22
2023-04-18T20:22:32.525Z,55.69
2023-04-18T20:25:01.606Z,55.71
2023-04-18T20:27:29.619Z,56.16
2023-04-18T20:29:57.531Z,56.17
2023-04-18T20:32:26.704Z,56.16
2023-04-18T20:34:54.695Z,56.13
2023-04-18T20:37:22.688Z,56.14
2023-04-18T20:39:50.314Z,56.46
2023-04-18T20:42:18.698Z,56.41
2023-04-18T20:44:46.947Z,56.80
2023-04-18T20:47:15.912Z,56.63
2023-04-18T20:49:43.756Z,56.72
2023-04-18T20:52:11.785Z,56.83
2023-04-18T20:54:39.573Z,56.85
2023-04-18T20:57:07.893Z,56.81
2023-04-18T20:59:35.763Z,57.11
2023-04-18T21:02:03.836Z,57.21
2023-04-18T21:04:31.701Z,57.67
2023-04-18T21:06:59.797Z,57.79
2023-04-18T21:09:27.562Z,57.93
2023-04-18T21:11:55.493Z,58.20
2023-04-18T21:14:23.292Z,58.04
2023-04-18T21:16:51.833Z,58.21
2023-04-18T21:19:19.638Z,58.36
2023-04-18T21:21:47.583Z,58.31
2023-04-18T21:24:16.039Z,58.42
2023-04-18T21:26:44.187Z,58.67
2023-04-18T21:29:12.044Z,58.29
2023-04-18T21:31:41.480Z,58.52
2023-04-18T21:34:11.258Z,58.60
2023-04-18T21:36:40.219Z,58.82
2023-04-18T21:39:08.427Z,59.00
2023-04-18T21:41:36.514Z,58.85
2023-04-18T21:44:04.204Z,59.09
2023-04-18T21:46:32.258Z,58.80
2023-04-18T21:48:59.929Z,59.15
2023-04-18T21:51:28.284Z,59.16
2023-04-18T21:53:56.017Z,59.21
2023-04-18T21:56:24.351Z,59.23
2023-04-18T21:58:52.059Z,59.27
2023-04-18T22:01:20.135Z,59.50
2023-04-18T22:03:48.002Z,59.74
2023-04-18T22:06:16.310Z,59.78
2023-04-18T22:08:44.033Z,59.94
2023-04-18T22:11:13.842Z,59.98
2023-04-18T22:13:44.894Z,60.43
2023-04-18T22:16:13.729Z,60.52
2023-04-18T22:18:41.682Z,60.89
2023-04-18T22:21:10.156Z,61.59
2023-04-18T22:23:37.875Z,61.54
2023-04-18T22:26:05.919Z,61.76
2023-04-18T22:28:34.064Z,62.02
2023-04-18T22:31:02.543Z,62.09
2023-04-18T22:33:30.421Z,62.35
2023-04-18T22:35:58.359Z,62.92
2023-04-18T22:38:26.298Z,63.22
2023-04-18T22:40:54.363Z,63.55
2023-04-18T22:43:22.948Z,64.21
2023-04-18T22:45:51.748Z,64.48
2023-04-18T22:48:20.140Z,64.83
2023-04-18T22:50:49.966Z,65.08
2023-04-18T22:53:17.862Z,65.40
2023-04-18T22:55:46.562Z,65.61
2023-04-18T22:58:14.531Z,65.51
2023-04-18T23:00:43.708Z,66.10
2023-04-18T23:03:11.718Z,66.12
2023-04-18T23:05:40.287Z,66.90
2023-04-18T23:08:08.308Z,66.97
2023-04-18T23:10:36.275Z,66.68
2023-04-18T23:13:03.991Z,66.88
2023-04-18T23:15:32.054Z,67.05
2023-04-18T23:17:59.802Z,67.13
2023-04-18T23:20:27.902Z,67.00
2023-04-18T23:22:56.082Z,67.00
2023-04-18T23:25:24.404Z,67.40
2023-04-18T23:27:52.060Z,67.43
2023-04-18T23:30:20.105Z,66.92
2023-04-18T23:32:47.822Z,66.70
2023-04-18T23:35:15.948Z,66.79
2023-04-18T23:37:43.655Z,67.01
2023-04-18T23:40:11.726Z,66.80
2023-04-18T23:42:39.393Z,67.04
2023-04-18T23:45:07.753Z,67.63
2023-04-18T23:47:35.483Z,67.57
2023-04-18T23:50:04.290Z,67.67
2023-04-18T23:52:31.989Z,67.94
2023-04-18T23:55:00.963Z,67.84
2023-04-18T23:57:28.690Z,68.08
2023-04-18T23:59:56.705Z,68.16
